Phoenix, Arizona
Traffic Map
Current Weather Conditions
Phoenix, Arizona
Scattered Clouds
Scattered Clouds
75°
Feels Like: 75°
Wind Chill: 75° Ceiling: Unl
Heat Index: 75° Visibility: 10mi
Dew Point: 71° Wind: 6mph
Humidity: 87% Direction: 10° (N)
Pressure: 29.77in Gusts: 0mph
Raw Report DataKPHX 200851Z 01005KT 10SM SCT230 24/22 A2977 RMK AO2 SLP064 T02390217 55002
Traffic Incident Summary
Active as of:
Severity:
Category:
InformationThere was an issue retrieving the traffic information for this location. Please try a different location or try again shortly.
Advertisements